5G0 weather

Le Roy Airport
Le Roy, New York, United States

Public forecast

Using degrees Fahrenheit for public forecast. Weather courtesy of forecast.io.

Closest aviation weather report (METAR) to Le Roy Airport

Closest report is Greater Rochester International Airport, 14.3 nm (26.4 km) NE. Retrieved 2020/01/24 12:54 UTC (47 minutes ago):

KROC 241254Z 10008KT 10SM SCT085 BKN140 OVC250 M01/M07 A3024 RMK AO2 SLP250 T10111067

Closest aviation forecast (TAF) to Le Roy Airport

Closest forecast is Greater Rochester International Airport, 14.3 nm (26.4 km) NE. Retrieved 2020/01/24 12:45 UTC (56 minutes ago):

TAF KROC 241142Z 2412/2512 10006KT P6SM BKN080 OVC110 FM241800 11006KT P6SM BKN250 FM250000 12007KT P6SM OVC080 WS020/14040KT FM250900 09008KT 5SM -RA OVC035 WS020/14040KT FM251000 10009KT 5SM -RA OVC025 WS020/14040KT